Portada
METAR-TAF:

METAR-TAF

Aeroports :

Base aèria Alcantarilla

Múrcia, Espanya

latitud: 37-57N, longitud: 001-14W, altitud: 75 m

Observació

L'informe es va fer fa 19 minuts, a les 11:00 UTC
Vent 11 kt del Oest/Nord-Oest, variant entre Oest/Sud-Oest i Nord/Nord-Oest
Temperatura 20°C
Humitat 37%
Pressió 1020 hPa
Visibilitat 10 km o més
sense núvols per sota de 1500 mi sense presència de cumulonimbus.

METAR: LERI 261100Z 30011KT 250V340 CAVOK 20/05 Q1020 NOSIG

Hora: 12:19 (11:19 UTC)

Pronòstic

L'informe es va fer fa 3 hores i 19 minuts, a les 08:00 UTC
Pronòstic vàlid del 26 a les 09 UTC al 26 a les 18 UTC
Vent 9 kt del Oest/Nord-Oest
Visibilitat 10 km o més
sense núvols per sota de 1500 mi sense presència de cumulonimbus.

TAF: LERI 260800Z 2609/2618 30009KT CAVOK

Observacions i pronòstics meteorològics de més de 4000 aeroports (METAR i TAF).

Les estacions disponibles són els punts grocs i vermells al mapa.

Posi el ratolí al punt desitjat per veure el nom de l'estació.

Feu clic per veure les observacions i els pronòstics meteorològics.

Per canviar el mapa: feu clic els botons verds amb una creu de color negre per apropar; al botó verd amb un guió per allunyar la imatge; o en les fletxes verdes per a mapes adjacents.


METAR-TAF: